Nashville, Tennessee
Traffic Map
Current Weather Conditions
Nashville, Tennessee
Overcast Light Fog
Overcast
13°
Feels Like: 13°
Wind Chill: 13° Ceiling: 500
Heat Index: 13° Visibility: 5mi
Dew Point: 13° Wind: 5mph
Humidity: 97% Direction: 10° (N)
Pressure: 30.04in Gusts: 0mph
Raw Report DataKBNA 171053Z 01004KT 5SM BR BCFG BKN005 OVC030 13/13 A3004 RMK AO2 SLP169 T01330128 $
Traffic Incident Summary
Active as of:
Severity:
Category:
InformationThere was an issue retrieving the traffic information for this location. Please try a different location or try again shortly.
Advertisements
Track Severe Weather on mobile